Latest Weather Observations for Naracoorte

IDS60801

Issued at 4:05 pm CST Saturday 2 August 2014 (issued every 30 minutes, with the page automatically refreshed every 10 minutes)

About weather observations | Map of weather stations | Latest weather observations for SA | Other Formats
Station Details ID: 026099 Name: NARACOORTE AERODROME Lat: -36.98 Lon: 140.73 Height: 49.72 m
Data from the previous 72 hours. | See also: Recent months at Naracoorte
Date/Time
CST
Temp
°C
App
Temp
°C
Dew
Point
Rel
Hum
%
Delta-T
°C
Wind Press
QNH
hPa
Press
MSL
hPa
Rain
since 9 am
mm
Dir
 
Spd
km/h
Gust
km/h
Spd
kts
Gust
kts
02/04:00pm 12.3 10.6 1.6 48 4.5 N 0 0 0 0 1031.4 - 0.0
02/03:30pm 10.8 8.3 3.8 62 3.1 WNW 6 7 3 4 1031.2 1031.3 0.0
02/03:00pm 12.3 9.0 2.7 52 4.2 NW 9 13 5 7 1031.2 1031.3 0.0
02/02:30pm 12.1 8.9 3.1 54 3.9 NW 9 13 5 7 1031.2 1031.3 0.0
02/02:00pm 12.7 10.0 3.6 54 4.1 NW 7 13 4 7 1031.2 - 0.0
02/01:30pm 12.5 9.9 3.2 53 4.1 N 6 13 3 7 1031.2 1031.3 0.0
02/01:00pm 12.2 9.9 2.9 53 4.1 WNW 4 15 2 8 1031.4 - 0.0
02/12:30pm 11.9 8.7 5.3 64 3.0 NNW 11 15 6 8 1031.7 1031.8 0.0
02/12:00pm 11.2 7.5 4.7 64 2.9 WNW 13 19 7 10 1032.0 1032.1 0.0
02/11:30am 10.9 7.4 5.4 69 2.5 WNW 13 17 7 9 1032.3 1032.4 0.0
02/11:00am 9.9 6.5 5.7 75 1.9 WNW 13 15 7 8 1032.4 - 0.0
02/10:30am 8.5 5.0 5.3 80 1.4 WNW 13 17 7 9 1032.4 1032.5 0.0
02/10:00am 7.7 4.5 5.0 83 1.2 NNW 11 15 6 8 1032.3 - 0.0
02/09:30am 6.3 3.2 3.8 84 1.1 NNW 9 13 5 7 1032.0 1032.1 0.0
02/09:00am 5.0 1.4 2.9 86 0.9 NNW 11 15 6 8 1031.8 1031.9 2.2
02/08:30am 3.6 -0.1 2.1 90 0.6 NNW 11 15 6 8 1031.4 1031.5 2.2
02/08:00am 2.3 -1.1 1.6 95 0.3 N 9 13 5 7 1031.1 - 2.2
02/07:30am 0.9 -2.3 0.5 97 0.1 N 7 9 4 5 1030.8 1030.9 2.2
02/07:00am 1.2 -2.4 0.8 97 0.1 N 9 11 5 6 1030.5 - 2.2
02/06:30am 1.1 -2.5 0.7 97 0.1 N 9 15 5 8 1030.0 1030.1 2.2
02/06:00am 0.5 -2.8 0.1 97 0.1 N 7 11 4 6 1029.6 1029.7 2.2
02/05:30am 0.6 -2.7 0.0 96 0.2 NNW 7 9 4 5 1029.2 1029.3 2.2
02/05:00am 1.0 -2.3 0.4 96 0.2 N 7 9 4 5 1028.8 - 2.2
02/04:30am 1.2 -1.8 0.5 95 0.3 NNW 6 9 3 5 1028.6 1028.7 2.2
02/04:00am 1.4 -2.2 0.8 96 0.2 NNW 9 11 5 6 1028.3 - 2.2
02/03:30am 1.4 -2.6 0.8 96 0.2 N 11 13 6 7 1028.2 1028.3 2.2
02/03:00am 1.0 -2.3 0.3 95 0.3 NW 7 9 4 5 1028.2 1028.3 2.2
02/02:30am 1.5 -2.1 0.8 95 0.3 N 9 11 5 6 1027.9 1028.0 2.2
02/02:00am 2.0 -1.5 1.3 95 0.3 NNW 9 11 5 6 1028.0 - 2.2
02/01:30am 2.0 -1.5 1.1 94 0.3 N 9 11 5 6 1027.9 1028.0 2.2
02/01:00am 2.3 -1.2 1.3 93 0.4 NNW 9 13 5 7 1027.6 - 2.0
02/12:30am 2.4 -0.7 1.4 93 0.4 NNW 7 13 4 7 1027.4 1027.5 2.0
02/12:00am 2.3 -1.2 1.1 92 0.5 NNW 9 11 5 6 1027.4 1027.5 2.0
 
Date/Time
CST
Temp
°C
App
Temp
°C
Dew
Point
Rel
Hum
%
Delta-T
°C
Wind Press
QNH
hPa
Press
MSL
hPa
Rain
since 9 am
mm
Dir
 
Spd
km/h
Gust
km/h
Spd
kts
Gust
kts
01/11:30pm 3.1 -1.1 1.9 92 0.5 NNW 13 17 7 9 1027.1 1027.2 2.0
01/11:00pm 2.9 -0.5 1.7 92 0.5 N 9 11 5 6 1027.0 - 2.0
01/10:30pm 3.3 -0.5 2.0 91 0.5 NNW 11 13 6 7 1026.6 1026.7 2.0
01/10:00pm 2.5 -1.4 1.3 92 0.5 W 11 15 6 8 1026.3 - 2.0
01/09:30pm 3.8 -1.1 2.3 90 0.6 W 17 20 9 11 1026.0 1026.1 2.0
01/09:00pm 4.3 1.4 2.5 88 0.7 SW 7 13 4 7 1025.6 1025.7 2.0
01/08:30pm 3.5 -1.0 2.2 91 0.5 WSW 15 19 8 10 1025.0 1025.1 2.0
01/08:00pm 4.3 -1.2 2.0 85 0.9 SW 20 20 11 11 1024.6 - 2.0
01/07:30pm 4.1 0.9 2.9 92 0.5 WSW 9 37 5 20 1024.5 1024.6 1.8
01/07:00pm 4.0 0.3 2.4 89 0.6 SSW 11 13 6 7 1023.5 - 1.8
01/06:30pm 5.5 -0.6 3.0 84 1.0 S 24 37 13 20 1023.1 1023.2 1.8
01/06:00pm 5.9 -0.1 3.4 84 1.0 SW 24 35 13 19 1022.0 1022.0 1.8
01/05:30pm 5.1 -0.1 2.6 84 1.0 SW 19 22 10 12 1021.3 1021.3 1.8
01/05:00pm 6.0 0.9 3.0 81 1.2 SSW 19 22 10 12 1020.6 - 1.8
01/04:30pm 7.1 -0.4 3.3 77 1.6 S 32 43 17 23 1019.9 1019.9 1.8
01/04:04pm 8.9 1.8 3.3 68 2.4 SSW 30 48 16 26 1019.2 - 1.8
01/04:00pm 9.4 1.9 3.4 66 2.6 SSW 32 48 17 26 1019.1 - 1.8
01/03:30pm 9.4 1.5 4.2 70 2.3 SSW 35 46 19 25 1018.5 1018.5 1.8
01/03:13pm 9.5 2.9 4.3 70 2.3 SSW 28 46 15 25 1018.2 - 1.8
01/03:00pm 9.0 2.9 5.0 76 1.8 SSW 26 35 14 19 1017.9 1017.9 1.8
01/02:30pm 9.7 2.7 5.9 77 1.7 S 32 43 17 23 1017.4 1017.4 1.8
01/02:00pm 8.3 0.8 4.7 78 1.6 S 33 52 18 28 1016.4 - 1.8
01/01:56pm 8.6 1.4 4.8 77 1.7 S 32 52 17 28 1016.3 - 1.8
01/01:30pm 7.1 -0.5 4.1 81 1.3 S 33 44 18 24 1015.8 1015.9 1.6
01/01:24pm 7.8 -0.4 4.6 80 1.4 S 37 44 20 24 1015.7 - 1.0
01/01:10pm 9.3 1.3 3.9 69 2.4 SSW 35 61 19 33 1015.3 - 0.6
01/01:00pm 10.1 3.7 5.3 72 2.2 SW 28 39 15 21 1015.2 - 0.6
01/12:30pm 8.1 3.2 5.2 82 1.3 SW 20 28 11 15 1015.0 1015.1 0.6
01/12:00pm 6.3 -0.9 3.1 80 1.3 S 30 37 16 20 1014.7 1014.8 0.6
01/11:45am 5.6 -4.0 3.3 85 1.0 S 43 61 23 33 1014.8 - 0.6
01/11:30am 5.9 -4.1 4.2 89 0.7 S 46 63 25 34 1014.7 1014.8 0.6
01/11:23am 6.0 -4.4 4.0 87 0.9 S 48 67 26 36 1014.4 - 0.4
01/11:19am 6.1 -5.7 2.9 80 1.3 S 54 67 29 36 1014.0 - 0.4
01/11:17am 7.9 -6.7 4.1 77 1.7 SSW 70 96 38 52 1012.7 - 0.4
01/11:16am 9.8 1.7 5.2 73 2.1 SW 37 96 20 52 1012.7 - 0.2
01/11:12am 9.8 3.4 5.2 73 2.1 SW 28 44 15 24 1012.9 - 0.2
01/11:00am 8.8 5.1 6.1 83 1.2 SSW 15 22 8 12 1013.2 - 0.2
01/10:30am 6.5 1.6 5.0 90 0.7 SSW 20 24 11 13 1012.6 1012.7 0.2
01/10:00am 6.8 0.4 3.4 79 1.4 S 26 35 14 19 1012.1 - 0.0
01/09:30am 7.5 2.7 5.5 87 0.9 WSW 20 26 11 14 1010.5 1010.6 0.0
01/09:00am 6.8 3.2 5.1 89 0.8 WSW 13 19 7 10 1009.7 1009.8 18.0
01/08:30am 5.5 2.6 4.5 93 0.4 SW 9 13 5 7 1008.9 1009.0 18.0
01/08:00am 5.2 -1.1 3.7 90 0.6 SW 26 33 14 18 1007.9 - 17.8
01/07:40am 5.8 -1.6 4.0 88 0.8 SW 32 50 17 27 1007.5 - 17.8
01/07:30am 6.0 0.1 4.0 87 0.9 WSW 24 30 13 16 1006.9 1007.0 17.2
01/07:00am 5.9 -0.9 3.2 83 1.1 W 28 39 15 21 1006.1 - 17.2
01/06:30am 5.7 0.1 3.5 86 0.9 WNW 22 35 12 19 1005.6 1005.7 17.2
01/06:00am 5.7 0.5 3.7 87 0.8 WNW 20 28 11 15 1004.9 1005.0 17.0
01/05:38am 5.6 -1.1 3.6 87 0.8 NW 28 48 15 26 1004.7 - 17.0
01/05:30am 5.2 0.2 3.5 89 0.7 NW 19 24 10 13 1004.4 1004.5 17.0
01/05:00am 5.4 -0.6 3.4 87 0.8 WNW 24 32 13 17 1004.1 - 17.0
01/04:30am 5.9 -1.6 3.6 85 1.0 WNW 32 50 17 27 1004.3 1004.4 16.8
01/04:00am 6.1 -1.1 2.9 80 1.3 WNW 30 50 16 27 1003.8 - 16.6
01/03:30am 6.1 -1.6 2.4 77 1.5 WNW 32 50 17 27 1003.8 1003.9 16.4
01/03:24am 5.7 -1.6 2.7 81 1.2 WNW 30 50 16 27 1004.2 - 16.4
01/03:00am 5.2 -0.7 3.9 91 0.6 W 24 37 13 20 1005.2 1005.3 16.4
01/02:30am 4.8 1.0 3.9 94 0.4 NW 13 15 7 8 1005.0 1005.1 16.2
01/02:00am 4.6 0.0 3.6 93 0.4 W 17 28 9 15 1005.2 - 16.2
01/01:30am 4.6 -2.1 3.4 92 0.5 WSW 28 35 15 19 1005.7 1005.8 16.0
01/01:16am 5.5 -2.9 3.5 87 0.8 WSW 37 54 20 29 1006.0 - 15.4
01/01:00am 6.0 -1.7 3.5 84 1.1 W 33 54 18 29 1005.4 - 14.8
01/12:56am 5.9 -0.8 3.7 86 0.9 W 28 54 15 29 1005.3 - 14.8
01/12:30am 5.2 -0.1 3.2 87 0.8 NNW 20 33 11 18 1004.5 1004.6 14.6
01/12:00am 4.7 0.4 3.0 89 0.7 N 15 19 8 10 1004.6 1004.7 14.6
 
Date/Time
CST
Temp
°C
App
Temp
°C
Dew
Point
Rel
Hum
%
Delta-T
°C
Wind Press
QNH
hPa
Press
MSL
hPa
Rain
since 9 am
mm
Dir
 
Spd
km/h
Gust
km/h
Spd
kts
Gust
kts
31/11:30pm 5.7 0.1 3.5 86 0.9 NW 22 44 12 24 1005.1 1005.2 14.6
31/11:00pm 5.9 0.9 3.6 85 1.0 NNW 19 22 10 12 1004.8 - 13.6
31/10:30pm 6.2 0.1 2.8 79 1.4 NW 24 32 13 17 1005.1 1005.2 13.6
31/10:00pm 6.2 1.1 3.0 80 1.3 NW 19 24 10 13 1004.9 - 13.6
31/09:30pm 6.1 -0.8 2.7 79 1.4 WNW 28 35 15 19 1004.8 1004.9 13.6
31/09:00pm 6.0 0.2 2.5 78 1.4 WNW 22 28 12 15 1004.8 1004.9 13.6
31/08:30pm 5.8 0.4 2.3 78 1.4 NW 20 26 11 14 1004.5 1004.6 13.6
31/08:00pm 6.0 0.9 2.8 80 1.3 WNW 19 26 10 14 1003.9 - 13.6
31/07:30pm 6.0 0.6 2.5 78 1.4 WNW 20 26 11 14 1003.9 1004.0 13.6
31/07:00pm 6.8 0.8 3.2 78 1.5 WNW 24 30 13 16 1003.5 - 13.6
31/06:30pm 7.2 2.7 4.0 80 1.4 NW 17 24 9 13 1002.9 1002.9 13.6
31/06:00pm 6.8 1.4 4.5 85 1.0 W 22 28 12 15 1003.0 1003.0 13.6
31/05:30pm 6.9 1.9 4.6 85 1.0 NW 20 28 11 15 1002.4 1002.4 13.6
31/05:00pm 6.5 1.1 4.5 87 0.9 W 22 30 12 16 1002.2 - 13.6
31/04:51pm 6.5 -3.9 4.2 85 1.0 WSW 48 67 26 36 1002.8 - 13.6
31/04:45pm 6.7 -4.5 4.2 84 1.1 WSW 52 67 28 36 1002.7 - 13.2
31/04:41pm 7.5 0.7 5.1 85 1.1 W 30 48 16 26 1002.6 - 13.2
31/04:30pm 7.6 1.2 5.2 85 1.1 W 28 39 15 21 1001.8 1001.8 13.0
31/04:10pm 7.6 0.4 5.2 85 1.1 W 32 67 17 36 1001.7 - 13.0
31/04:00pm 8.0 1.1 6.3 89 0.8 W 32 37 17 20 1001.4 - 12.8
31/03:34pm 8.6 2.5 6.6 87 0.9 W 28 46 15 25 1001.0 - 12.0
31/03:30pm 8.8 3.5 6.8 87 0.9 WNW 24 30 13 16 1000.9 1000.9 12.0
31/03:00pm 8.4 2.6 6.2 86 1.0 WNW 26 35 14 19 1000.5 1000.5 11.8
31/02:30pm 8.3 3.1 7.1 92 0.6 W 24 32 13 17 1000.9 1000.9 11.8
31/02:00pm 8.3 2.3 7.2 93 0.5 W 28 37 15 20 1000.7 - 11.2
31/01:30pm 8.3 1.3 6.8 90 0.7 W 33 43 18 23 1000.4 1000.4 10.4
31/01:00pm 8.6 2.3 7.5 93 0.5 W 30 41 16 22 1000.2 - 9.6
31/12:34pm 8.6 1.4 7.5 93 0.5 WSW 35 54 19 29 1000.1 - 9.0
31/12:30pm 8.5 0.8 7.3 92 0.6 WSW 37 54 20 29 1000.1 1000.1 9.0
31/12:00pm 9.2 1.0 8.0 92 0.6 WSW 41 57 22 31 1000.0 1000.0 7.8
31/11:44am 9.0 -0.2 7.9 93 0.5 WSW 46 65 25 35 999.8 - 7.8
31/11:30am 9.6 1.1 8.5 93 0.5 WSW 43 59 23 32 999.6 999.6 7.6
31/11:06am 10.2 1.9 9.3 94 0.4 W 43 65 23 35 998.9 - 6.6
31/11:00am 10.7 2.9 9.9 95 0.4 W 41 54 22 29 998.6 - 6.4
31/10:33am 10.8 0.8 9.2 90 0.8 W 52 70 28 38 998.8 - 1.0
31/10:30am 11.2 0.7 8.8 85 1.2 W 54 70 29 38 998.7 998.7 0.2
31/10:26am 13.4 1.3 7.6 68 2.9 W 61 70 33 38 998.7 - 0.0
31/10:12am 14.9 6.2 9.9 72 2.6 NW 46 76 25 41 997.6 - 0.0
31/10:00am 14.0 6.7 10.2 78 2.0 NNW 39 57 21 31 997.9 - 0.0
31/09:42am 13.3 5.4 9.5 78 1.9 NNW 41 59 22 32 998.3 - 0.0
31/09:30am 13.1 5.6 9.4 78 1.9 NNW 39 52 21 28 998.4 998.4 0.0
31/09:05am 13.0 5.9 9.4 79 1.8 NNW 37 56 20 30 998.9 - 0.0
31/09:00am 12.8 5.2 9.1 78 1.9 NNW 39 52 21 28 998.9 998.9 0.2
31/08:30am 12.5 4.0 8.6 77 2.0 NNW 43 63 23 34 999.6 999.6 0.2
31/08:25am 12.5 4.4 8.6 77 1.9 NNW 41 63 22 34 999.6 - 0.2
31/08:00am 12.5 4.8 8.8 78 1.9 NNW 39 56 21 30 1000.0 - 0.2
31/07:44am 12.2 4.5 8.7 79 1.7 NNW 39 57 21 31 1000.2 - 0.2
31/07:30am 12.3 4.2 8.6 78 1.9 NNW 41 57 22 31 1000.3 1000.3 0.2
31/07:15am 11.8 4.4 8.5 80 1.6 NNW 37 56 20 30 1000.4 - 0.2
31/07:00am 11.5 4.1 8.2 80 1.6 NNW 37 48 20 26 1000.7 - 0.2
31/06:30am 11.8 4.3 8.1 78 1.8 NNW 37 50 20 27 1001.0 1001.0 0.2
31/06:10am 12.1 4.6 8.0 76 2.0 NNW 37 57 20 31 1001.3 - 0.2
31/06:00am 12.1 5.4 8.0 76 2.0 NNW 33 46 18 25 1001.3 1001.3 0.2
31/05:32am 12.2 5.1 8.1 76 2.0 NNW 35 54 19 29 1001.5 - 0.2
31/05:30am 12.2 5.5 8.1 76 2.0 NNW 33 50 18 27 1001.5 1001.5 0.2
31/05:00am 12.2 5.1 8.1 76 2.0 NNW 35 50 19 27 1001.8 - 0.2
31/04:42am 12.1 5.4 8.2 77 1.9 NNW 33 54 18 29 1002.2 - 0.2
31/04:30am 12.2 5.1 8.1 76 2.0 NNW 35 50 19 27 1002.4 1002.4 0.2
31/04:17am 12.3 4.9 8.2 76 2.0 NNW 37 57 20 31 1002.5 - 0.2
31/04:00am 12.2 5.5 8.3 77 1.9 NNW 33 46 18 25 1002.9 - 0.2
31/03:32am 13.1 6.2 8.8 75 2.2 NNW 35 54 19 29 1003.5 - 0.2
31/03:30am 13.1 5.8 8.6 74 2.3 NNW 37 54 20 29 1003.5 1003.5 0.2
31/03:00am 13.1 5.4 8.8 75 2.2 NNW 39 59 21 32 1004.0 1004.1 0.2
31/02:44am 13.2 6.3 8.9 75 2.2 NNW 35 54 19 29 1004.3 - 0.2
31/02:30am 13.3 6.9 9.2 76 2.1 NNW 33 50 18 27 1004.6 1004.7 0.2
31/02:20am 13.3 6.9 9.2 76 2.1 NNW 33 52 18 28 1004.8 - 0.2
31/02:00am 13.0 6.2 9.3 78 1.9 NNW 35 50 19 27 1005.1 - 0.2
31/01:30am 13.0 6.8 9.4 79 1.8 NNW 32 46 17 25 1005.5 1005.6 0.2
31/01:00am 13.2 7.0 9.5 78 1.9 NNW 32 46 17 25 1005.9 - 0.2
31/12:30am 13.8 7.1 9.8 77 2.1 NNW 35 46 19 25 1006.5 1006.6 0.2
31/12:12am 13.7 7.6 9.9 78 2.0 NNW 32 50 17 27 1006.7 - 0.2
31/12:00am 13.6 8.0 10.2 80 1.8 NNW 30 39 16 21 1007.0 1007.1 0.2
 
Date/Time
CST
Temp
°C
App
Temp
°C
Dew
Point
Rel
Hum
%
Delta-T
°C
Wind Press
QNH
hPa
Press
MSL
hPa
Rain
since 9 am
mm
Dir
 
Spd
km/h
Gust
km/h
Spd
kts
Gust
kts
30/11:30pm 13.4 7.3 10.6 83 1.5 NNW 33 44 18 24 1007.4 1007.5 0.2
30/11:08pm 13.5 7.7 10.7 83 1.5 NNW 32 52 17 28 1007.7 - 0.2
30/11:00pm 13.4 7.5 10.6 83 1.5 NNW 32 44 17 24 1007.9 - 0.2
30/10:30pm 12.9 7.8 10.6 86 1.2 NNW 28 41 15 22 1008.6 1008.7 0.2
30/10:00pm 13.7 7.7 10.9 83 1.5 NNW 33 50 18 27 1009.3 - 0.2
30/09:43pm 13.7 7.7 10.7 82 1.6 NNW 33 52 18 28 1009.6 - 0.2
30/09:30pm 14.0 6.9 11.0 82 1.6 NNW 39 50 21 27 1009.7 1009.8 0.2
30/09:00pm 13.3 8.2 10.7 84 1.4 NNW 28 41 15 22 1010.0 1010.1 0.2
30/08:30pm 13.5 9.2 10.7 83 1.5 NNW 24 32 13 17 1010.3 1010.4 0.2
30/08:00pm 14.0 8.6 10.8 81 1.7 NW 30 39 16 21 1010.7 - 0.2
30/07:30pm 14.3 7.9 10.7 79 1.9 NW 35 48 19 26 1010.9 1011.0 0.2
30/07:00pm 14.4 8.0 10.8 79 1.9 NW 35 48 19 26 1010.9 - 0.2
30/06:30pm 14.2 8.3 10.6 79 1.9 NW 32 41 17 22 1010.7 1010.8 0.2
30/06:00pm 13.8 7.3 10.4 80 1.8 NW 35 46 19 25 1010.7 1010.8 0.2
30/05:30pm 14.5 7.9 9.9 74 2.4 NW 35 46 19 25 1010.7 1010.8 0.2
30/05:00pm 14.7 9.1 10.1 74 2.4 NW 30 37 16 20 1010.7 - 0.2
30/04:30pm 15.1 8.5 9.9 71 2.7 NW 35 43 19 23 1010.9 1011.0 0.2

Other Formats:

Comma delimited format used in spreadsheet applications
http://www.bom.gov.au/fwo/IDS60801/IDS60801.94820.axf

JavaScript Object Notation format (JSON) in row-major order
http://www.bom.gov.au/fwo/IDS60801/IDS60801.94820.json